Flight Track Log - Related Links

Times and Time Zones

All times are in EDT time to prevent confusion due to time zone crossing. See the JBU1329 flight status page for this flight to view local times or setup timezone preferences in your user account.

Time Position Orientation Groundspeed Altitude Reporting Facility
EDT Latitude Longitude Course Direction KTS km/h feet Rate Location/Type
Tue 09:18:00 42.3833 -71.0000 262° West 161 298 600  Level KA90
Tue 09:19:06 42.4333 -70.9667 26° Northeast 200 370 2.600 1.810 Climbing KA90
Tue 09:20:00 42.3713 -70.7309 172° South  Level FlightAware Approximate
Tue 09:20:06 42.4500 -70.9000 71° East 260 481 4.400  Level KA90
Tue 09:20:55 42.4533 -70.8108 87° East 306 566 6.100 2.037 Climbing Boston Center
Tue 09:21:00 42.2805 -70.7459 228° Southwest  Level FlightAware Approximate
Tue 09:21:55 42.3981 -70.7419 137° Southeast 279 517 8.100  Level Boston Center
Tue 09:22:00 42.2180 -70.8526 240° Southwest  Level FlightAware Approximate
Tue 09:22:55 42.3147 -70.7358 177° South 255 472 11.100  Level Boston Center
Tue 09:23:00 42.1824 -70.9765 262° West  Level FlightAware Approximate
Tue 09:23:55 42.2450 -70.8219 222° Southwest 264 489 12.800  Level Boston Center
Tue 09:24:55 42.2133 -70.9375 250° West 328 607 15.600 2.700 Climbing Boston Center
Tue 09:25:55 42.1900 -71.0839 258° West 348 644 18.200 2.350 Climbing Boston Center
Tue 09:26:55 42.1728 -71.2131 260° West 378 700 20.300 2.100 Climbing Boston Center
Tue 09:27:55 42.1514 -71.3536 258° West 384 711 22.400 1.818 Climbing Boston Center
Tue 09:29:07 42.1319 -71.4994 260° West 394 729 24.300 1.773 Climbing Boston Center
Tue 09:30:07 42.0978 -71.6903 256° West 394 729 26.300 1.750 Climbing Boston Center
Tue 09:31:07 42.0758 -71.8386 259° West 400 740 27.800 1.300 Climbing Boston Center
Tue 09:32:07 42.0514 -71.9928 258° West 413 764 28.900 1.050 Climbing Boston Center
Tue 09:33:07 42.0269 -72.1494 258° West 424 785 29.900 1.550 Climbing Boston Center
Tue 09:34:07 41.9711 -72.2950 243° Southwest 437 810 32.000 1.050 Climbing Boston Center
Tue 09:35:07 41.9003 -72.4289 235° Southwest 437 810 32.000  Level Boston Center
Tue 09:36:07 41.8272 -72.5711 235° Southwest 450 834 32.000  Level Boston Center
Tue 09:37:07 41.7519 -72.7072 233° Southwest 463 858 32.000  Level Boston Center
Tue 09:38:07 41.6786 -72.8486 235° Southwest 468 867 32.000  Level Boston Center
Tue 09:39:07 41.6281 -72.9428 234° Southwest 468 867 32.000  Level Boston Center
Tue 09:40:07 41.5397 -73.1086 235° Southwest 468 867 32.000 -300 Level Boston Center
Tue 09:41:07 41.4658 -73.2461 234° Southwest 468 867 31.400 -933 Descending Boston Center
Tue 09:43:07 41.3236 -73.5089 234° Southwest 476 882 29.200 -1.112 Descending New York Center
Tue 09:44:05 41.2497 -73.6411 233° Southwest 463 858 28.100 -605 Descending New York Center
Tue 09:45:06 41.1736 -73.7675 231° Southwest 453 838 28.000 -49 Descending New York Center
Tue 09:46:07 41.1017 -73.8908 232° Southwest 441 816 28.000  Level New York Center
Tue 09:47:08 41.0275 -74.0139 231° Southwest 441 816 28.000  Level New York Center
Tue 09:48:06 40.9531 -74.1394 232° Southwest 436 808 28.000  Level New York Center
Tue 09:49:06 40.8744 -74.2644 230° Southwest 436 808 28.000  Level New York Center
Tue 09:50:07 40.7981 -74.3839 230° Southwest 436 808 28.000  Level New York Center
Tue 09:51:05 40.7233 -74.5086 232° Southwest 441 816 28.000 -559 Level New York Center
Tue 09:52:05 40.6506 -74.6333 232° Southwest 436 808 26.900 -1.041 Descending New York Center
Tue 09:53:06 40.5736 -74.7547 230° Southwest 431 798 25.900 -1.140 Descending New York Center
Tue 09:54:06 40.4925 -74.8700 227° Southwest 431 798 24.600 -1.339 Descending New York Center
Tue 09:55:07 40.4178 -74.9772 228° Southwest 425 787 23.200 -1.462 Descending New York Center
Tue 09:56:05 40.3389 -75.0869 227° Southwest 425 787 21.700 -1.462 Descending New York Center
Tue 09:57:06 40.2661 -75.1939 228° Southwest 415 769 20.300 -1.438 Descending New York Center
Tue 09:58:06 40.1806 -75.3081 226° Southwest 403 747 18.800 -1.140 Descending New York Center
Tue 09:59:07 40.1144 -75.3986 226° Southwest 403 747 18.000 -403 Descending New York Center
Tue 10:00:05 40.0372 -75.5072 227° Southwest 390 723 18.000  Level New York Center
Tue 10:01:06 39.9708 -75.5978 226° Southwest 385 713 18.000 -49 Level New York Center
Tue 10:02:07 39.8953 -75.7117 229° Southwest 385 713 17.900 -908 Descending New York Center
Tue 10:03:05 39.8456 -75.8081 236° Southwest 378 700 16.200 -1.593 Descending New York Center
Tue 10:05:04 39.7333 -76.0333 237° Southwest 349 647 13.200 -1.500 Descending Potomac TRACON
Tue 10:06:05 39.6833 -76.1333 237° Southwest 339 628 11.700 -1.240 Descending Potomac TRACON
Tue 10:07:05 39.6333 -76.2167 232° Southwest 307 568 10.700 -1.250 Descending Potomac TRACON
Tue 10:08:05 39.5833 -76.3000 232° Southwest 275 509 9.200 -1.600 Descending Potomac TRACON
Tue 10:09:05 39.5500 -76.3833 243° Southwest 269 499 7.500 -1.650 Descending Potomac TRACON
Tue 10:10:05 39.5000 -76.4500 226° Southwest 279 517 5.900 -1.421 Descending Potomac TRACON
Tue 10:10:59 39.4167 -76.4500 180° South 274 507 4.800 -1.053 Descending Potomac TRACON
Tue 10:11:59 39.3500 -76.4667 191° South 265 491 3.900 -900 Descending Potomac TRACON
Tue 10:12:59 39.2833 -76.4833 191° South 262 486 3.000 -900 Descending Potomac TRACON
Tue 10:13:59 39.2000 -76.4833 180° South 258 478 2.100 -545 Descending Potomac TRACON
Tue 10:15:00 39.1500 -76.5333 218° Southwest 249 462 1.900 -197 Descending Potomac TRACON

Login

Don't have an account? Register now (free) for customized features, flight alerts, and more!